LiveATC.Net - Listen to live air traffic control over the Internet!

ICAO: KMLB  IATA: MLB   Airport: Melbourne International Airport
City: Melbourne   State/Province: Florida
Country: United States   Continent: North America
KMLB METAR Weather: KMLB 261753Z 07015KT 10SM CLR 28/17 A3018 RMK AO2 SLP219 T02830172 10283 20244 58014
KMLB Flight Activity (FlightAware)
KMLB Airport Info   (AirNav) (iFlightPlanner)
KMLB VFR Sectional Chart   (iFlightPlanner) 
KMLB IFR Low Chart   (iFlightPlanner) 
KMLB Twr/App
Feed Status: UP   Listeners: 1
Listen right in your browser - requires Flash (in browser, requires Flash)
Click here to listen with your own player (launches your MP3 player)
KMLB Twr/App Audio Archives
Melbourne Tower118.200
Orlando Approach132.650

Sponsored by:
Melbourne Area Pilots Association


Unauthorized use prohibited. See Terms of Service

Find LiveATC Audio Streams

Airport/ARTCC Code

(e.g., 124.400, 128.75)
Site-wide search

Browse LiveATC Feeds
LiveATC Coverage Map
Top 50 LiveATC Feeds
Bad Weather Areas

Offer a LiveATC Feed
Press Inquiries

LiveATC on iPhone
LiveATC on Android

Windows Phone
Windows 8/10

LiveATC Mobile
(Mobile browser)

ATC Audio Archives
Interesting Recordings

LiveATC Forums

Home Page
Make a Donation
LiveATC Store

Terms of Use
Privacy Policy

Canadian Air Freqs


FAA Airport Status
Nat'l Airspace Status
Arrival Demand Charts

Server Software By: